createdAt,value
2017-08-20T00:00:31.449Z,67.04
2017-08-20T00:02:58.912Z,67.60
2017-08-20T00:05:26.441Z,67.57
2017-08-20T00:07:53.925Z,67.48
2017-08-20T00:10:21.397Z,67.31
2017-08-20T00:12:48.876Z,67.07
2017-08-20T00:15:16.361Z,67.01
2017-08-20T00:17:43.834Z,67.31
2017-08-20T00:20:11.353Z,68.00
2017-08-20T00:22:38.824Z,67.77
2017-08-20T00:25:06.342Z,67.70
2017-08-20T00:27:33.844Z,68.30
2017-08-20T00:30:01.333Z,68.22
2017-08-20T00:32:28.822Z,68.26
2017-08-20T00:34:56.288Z,68.43
2017-08-20T00:37:24.145Z,68.25
2017-08-20T00:39:51.617Z,68.04
2017-08-20T00:42:19.077Z,68.43
2017-08-20T00:44:46.556Z,68.55
2017-08-20T00:47:14.049Z,68.62
2017-08-20T00:49:41.505Z,68.46
2017-08-20T00:52:09.067Z,70.12
2017-08-20T00:54:36.521Z,71.53
2017-08-20T00:57:04.769Z,71.62
2017-08-20T00:59:32.261Z,71.61
2017-08-20T01:01:59.744Z,72.52
2017-08-20T01:04:27.568Z,72.13
2017-08-20T01:06:55.040Z,72.78
2017-08-20T01:09:22.514Z,73.61
2017-08-20T01:11:49.989Z,73.87
2017-08-20T01:14:17.470Z,74.26
2017-08-20T01:16:44.936Z,74.22
2017-08-20T01:19:12.411Z,74.60
2017-08-20T01:21:39.872Z,74.85
2017-08-20T01:24:07.338Z,75.14
2017-08-20T01:26:34.796Z,75.62
2017-08-20T01:29:02.304Z,75.89
2017-08-20T01:31:29.774Z,75.79
2017-08-20T01:33:57.239Z,75.76
2017-08-20T01:36:24.721Z,75.49
2017-08-20T01:38:52.197Z,75.89
2017-08-20T01:41:19.676Z,76.04
2017-08-20T01:43:47.221Z,76.29
2017-08-20T01:46:14.706Z,76.27
2017-08-20T01:48:42.180Z,76.48
2017-08-20T01:51:09.665Z,76.87
2017-08-20T01:53:37.114Z,76.93
2017-08-20T01:56:04.594Z,77.07
2017-08-20T01:58:32.057Z,77.11
2017-08-20T02:00:59.558Z,77.06
2017-08-20T02:03:27.007Z,77.20
2017-08-20T02:05:54.499Z,77.12
2017-08-20T02:08:22.467Z,76.91
2017-08-20T02:10:49.925Z,76.23
2017-08-20T02:13:17.735Z,75.73
2017-08-20T02:15:45.285Z,75.04
2017-08-20T02:18:12.737Z,74.75
2017-08-20T02:20:40.248Z,74.80
2017-08-20T02:23:07.705Z,74.65
2017-08-20T02:25:35.192Z,74.41
2017-08-20T02:28:02.652Z,74.07
2017-08-20T02:30:30.125Z,74.16
2017-08-20T02:32:57.574Z,73.75
2017-08-20T02:35:25.070Z,73.77
2017-08-20T02:37:52.563Z,73.84
2017-08-20T02:40:20.087Z,73.51
2017-08-20T02:42:47.543Z,73.77
2017-08-20T02:45:15.024Z,73.74
2017-08-20T02:47:42.495Z,73.73
2017-08-20T02:50:09.962Z,73.73
2017-08-20T02:52:37.438Z,73.86
2017-08-20T02:55:04.900Z,73.79
2017-08-20T02:57:32.369Z,73.66
2017-08-20T02:59:59.817Z,73.32
2017-08-20T03:02:27.296Z,73.12
2017-08-20T03:04:54.759Z,73.45
2017-08-20T03:07:22.293Z,73.58
2017-08-20T03:09:49.736Z,73.64
2017-08-20T03:12:17.233Z,73.35
2017-08-20T03:14:44.704Z,73.13
2017-08-20T03:17:12.198Z,73.08
2017-08-20T03:19:39.649Z,72.83
2017-08-20T03:22:07.096Z,73.20
2017-08-20T03:24:34.576Z,73.31
2017-08-20T03:27:02.074Z,73.76
2017-08-20T03:29:29.567Z,74.00
2017-08-20T03:31:57.029Z,73.86
2017-08-20T03:34:24.514Z,73.80
2017-08-20T03:36:51.969Z,73.82
2017-08-20T03:39:19.449Z,73.84
2017-08-20T03:41:46.906Z,74.24
2017-08-20T03:44:14.400Z,74.30
2017-08-20T03:46:41.857Z,74.02
2017-08-20T03:49:09.337Z,74.40
2017-08-20T03:51:36.792Z,74.50
2017-08-20T03:54:04.286Z,74.24
2017-08-20T03:56:31.742Z,74.21
2017-08-20T03:58:59.224Z,74.03
2017-08-20T04:01:26.678Z,73.81
2017-08-20T04:03:54.169Z,73.87
2017-08-20T04:06:21.665Z,74.39
2017-08-20T04:08:49.121Z,74.14
2017-08-20T04:11:16.605Z,74.11
2017-08-20T04:13:44.084Z,73.83
2017-08-20T04:16:11.630Z,73.90
2017-08-20T04:18:39.094Z,73.82
2017-08-20T04:21:06.581Z,74.70
2017-08-20T04:23:34.032Z,75.57
2017-08-20T04:26:01.505Z,76.01
2017-08-20T04:28:28.960Z,75.13
2017-08-20T04:30:56.482Z,74.49
2017-08-20T04:33:23.972Z,74.52
2017-08-20T04:35:51.429Z,74.30
2017-08-20T04:38:18.901Z,74.17
2017-08-20T04:40:46.344Z,74.65
2017-08-20T04:43:13.948Z,74.35
2017-08-20T04:45:41.425Z,73.56
2017-08-20T04:48:08.972Z,72.87
2017-08-20T04:50:37.044Z,73.20
2017-08-20T04:53:05.559Z,74.10
2017-08-20T04:55:33.021Z,74.01
2017-08-20T04:58:00.501Z,73.59
2017-08-20T05:00:27.979Z,73.56
2017-08-20T05:02:55.446Z,73.94
2017-08-20T05:05:22.951Z,73.98
2017-08-20T05:07:50.410Z,73.55
2017-08-20T05:10:17.904Z,73.37
2017-08-20T05:12:45.349Z,73.29
2017-08-20T05:15:12.829Z,72.87
2017-08-20T05:17:40.286Z,73.00
2017-08-20T05:20:07.760Z,73.18
2017-08-20T05:22:35.221Z,72.81
2017-08-20T05:25:02.701Z,72.54
2017-08-20T05:27:30.173Z,72.89
2017-08-20T05:29:57.660Z,73.19
2017-08-20T05:32:25.109Z,73.49
2017-08-20T05:34:52.605Z,73.36
2017-08-20T05:37:20.126Z,73.08
2017-08-20T05:39:47.577Z,73.01
2017-08-20T05:42:15.064Z,73.02
2017-08-20T05:44:42.520Z,73.05
2017-08-20T05:47:10.040Z,73.15
2017-08-20T05:49:37.493Z,73.25
2017-08-20T05:52:05.279Z,73.31
2017-08-20T05:54:32.732Z,72.96
2017-08-20T05:57:00.215Z,72.82
2017-08-20T05:59:27.686Z,72.78
2017-08-20T06:01:55.137Z,72.97
2017-08-20T06:04:22.624Z,72.97
2017-08-20T06:06:50.113Z,72.39
2017-08-20T06:09:17.604Z,72.83
2017-08-20T06:11:45.066Z,73.03
2017-08-20T06:14:12.655Z,72.83
2017-08-20T06:16:40.164Z,72.93
2017-08-20T06:19:07.688Z,71.80
2017-08-20T06:21:35.144Z,72.00
2017-08-20T06:24:02.640Z,71.70
2017-08-20T06:26:30.102Z,71.33
2017-08-20T06:28:57.579Z,70.74
2017-08-20T06:31:25.063Z,70.82
2017-08-20T06:33:53.317Z,70.39
2017-08-20T06:36:20.808Z,70.17
2017-08-20T06:38:48.266Z,70.21
2017-08-20T06:41:15.737Z,69.90
2017-08-20T06:43:43.189Z,69.58
2017-08-20T06:46:10.656Z,69.27
2017-08-20T06:48:38.116Z,69.45
2017-08-20T06:51:05.593Z,69.18
2017-08-20T06:53:33.067Z,68.50
2017-08-20T06:56:00.571Z,67.67
2017-08-20T06:58:28.120Z,67.70
2017-08-20T07:00:55.618Z,67.94
2017-08-20T07:03:23.069Z,68.39
2017-08-20T07:05:50.524Z,68.55
2017-08-20T07:08:18.003Z,68.09
2017-08-20T07:10:45.453Z,68.06
2017-08-20T07:13:12.940Z,67.62
2017-08-20T07:15:40.413Z,67.57
2017-08-20T07:18:07.902Z,66.94
2017-08-20T07:20:35.349Z,66.76
2017-08-20T07:23:02.849Z,67.14
2017-08-20T07:25:30.321Z,66.71
2017-08-20T07:27:57.781Z,66.04
2017-08-20T07:30:25.286Z,66.68
2017-08-20T07:32:52.740Z,65.96
2017-08-20T07:35:20.220Z,66.08
2017-08-20T07:37:47.681Z,66.35
2017-08-20T07:40:15.273Z,66.40
2017-08-20T07:42:42.718Z,65.92
2017-08-20T07:45:10.174Z,65.91
2017-08-20T07:47:37.673Z,65.58
2017-08-20T07:50:05.629Z,65.35
2017-08-20T07:52:33.080Z,65.39
2017-08-20T07:55:00.564Z,65.01
2017-08-20T07:57:28.094Z,64.46
2017-08-20T07:59:55.591Z,64.45
2017-08-20T08:02:23.072Z,64.16
2017-08-20T08:04:50.524Z,63.99
2017-08-20T08:07:18.031Z,63.75
2017-08-20T08:09:45.521Z,63.45
2017-08-20T08:12:12.973Z,62.78
2017-08-20T08:14:40.451Z,62.62
2017-08-20T08:17:07.933Z,63.53
2017-08-20T08:19:35.426Z,63.86
2017-08-20T08:22:02.885Z,64.12
2017-08-20T08:24:30.384Z,63.92
2017-08-20T08:26:57.836Z,63.76
2017-08-20T08:29:25.325Z,63.30
2017-08-20T08:31:52.789Z,62.68
2017-08-20T08:34:20.244Z,62.56
2017-08-20T08:36:47.726Z,62.37
2017-08-20T08:39:15.223Z,62.49
2017-08-20T08:41:42.713Z,62.04
2017-08-20T08:44:10.171Z,61.76
2017-08-20T08:46:37.657Z,60.03
2017-08-20T08:49:05.873Z,60.03
2017-08-20T08:51:33.357Z,57.13
2017-08-20T08:54:00.843Z,58.94
2017-08-20T08:56:28.329Z,56.21
2017-08-20T08:58:55.785Z,57.10
2017-08-20T09:01:23.254Z,57.71
2017-08-20T09:03:50.724Z,58.34
2017-08-20T09:06:18.168Z,55.00
2017-08-20T09:08:45.644Z,55.33
2017-08-20T09:11:13.130Z,56.99
2017-08-20T09:13:40.627Z,55.76
2017-08-20T09:16:08.081Z,55.13
2017-08-20T09:18:35.564Z,55.76
2017-08-20T09:21:03.050Z,53.29
2017-08-20T09:23:30.513Z,52.69
2017-08-20T09:25:57.988Z,53.08
2017-08-20T09:28:25.438Z,52.31
2017-08-20T09:30:52.927Z,52.51
2017-08-20T09:33:20.420Z,51.10
2017-08-20T09:35:47.927Z,49.43
2017-08-20T09:38:15.417Z,50.21
2017-08-20T09:40:42.901Z,50.26
2017-08-20T09:43:10.384Z,47.99
2017-08-20T09:45:37.915Z,48.59
2017-08-20T09:48:05.833Z,49.36
2017-08-20T09:50:33.290Z,48.22
2017-08-20T09:53:00.778Z,47.58
2017-08-20T09:55:28.293Z,48.00
2017-08-20T09:57:55.801Z,47.70
2017-08-20T10:00:23.258Z,48.01
2017-08-20T10:02:50.732Z,48.89
2017-08-20T10:05:18.325Z,48.12
2017-08-20T10:07:45.827Z,48.07
2017-08-20T10:10:13.311Z,47.06
2017-08-20T10:12:40.789Z,46.68
2017-08-20T10:15:08.641Z,46.49
2017-08-20T10:17:36.175Z,44.17
2017-08-20T10:20:04.291Z,42.41
2017-08-20T10:22:31.786Z,43.09
2017-08-20T10:24:59.268Z,44.57
2017-08-20T10:27:26.779Z,44.60
2017-08-20T10:29:54.272Z,44.76
2017-08-20T10:32:21.770Z,43.87
2017-08-20T10:34:49.234Z,44.41
2017-08-20T10:37:16.836Z,43.77
2017-08-20T10:39:44.373Z,42.90
2017-08-20T10:42:11.876Z,42.84
2017-08-20T10:44:39.360Z,43.60
2017-08-20T10:47:07.746Z,42.44
2017-08-20T10:49:35.240Z,41.88
2017-08-20T10:52:02.718Z,42.29
2017-08-20T10:54:30.174Z,42.79
2017-08-20T10:56:57.661Z,42.60
2017-08-20T10:59:25.151Z,43.70
2017-08-20T11:01:52.613Z,44.21
2017-08-20T11:04:20.131Z,44.75
2017-08-20T11:06:47.607Z,45.10
2017-08-20T11:09:15.121Z,45.33
2017-08-20T11:11:42.573Z,45.62
2017-08-20T11:14:10.107Z,45.41
2017-08-20T11:16:37.594Z,42.71
2017-08-20T11:19:05.580Z,42.37
2017-08-20T11:21:33.070Z,43.72
2017-08-20T11:24:00.578Z,44.05
2017-08-20T11:26:28.085Z,42.70
2017-08-20T11:28:55.596Z,40.44
2017-08-20T11:31:23.129Z,40.85
2017-08-20T11:33:50.614Z,40.74
2017-08-20T11:36:18.333Z,40.30
2017-08-20T11:38:45.805Z,40.72
2017-08-20T11:41:13.281Z,41.06
2017-08-20T11:43:40.791Z,41.43
2017-08-20T11:46:08.294Z,41.29
2017-08-20T11:48:35.758Z,39.78
2017-08-20T11:51:03.260Z,37.60
2017-08-20T11:53:30.744Z,38.11
2017-08-20T11:55:58.265Z,38.90
2017-08-20T11:58:25.725Z,39.68
2017-08-20T12:00:53.190Z,39.31
2017-08-20T12:03:20.697Z,36.52
2017-08-20T12:05:48.177Z,37.59
2017-08-20T12:08:16.278Z,38.05
2017-08-20T12:10:43.743Z,38.83
2017-08-20T12:13:11.240Z,39.58
2017-08-20T12:15:38.699Z,39.43
2017-08-20T12:18:06.187Z,39.03
2017-08-20T12:20:33.652Z,39.77
2017-08-20T12:23:01.123Z,37.78
2017-08-20T12:25:28.638Z,38.63
2017-08-20T12:27:56.110Z,37.47
2017-08-20T12:30:23.589Z,37.50
2017-08-20T12:32:51.059Z,37.24
2017-08-20T12:35:18.563Z,37.84
2017-08-20T12:37:46.050Z,37.64
2017-08-20T12:40:13.539Z,36.63
2017-08-20T12:42:41.076Z,36.68
2017-08-20T12:45:08.537Z,36.95
2017-08-20T12:47:36.050Z,35.26
2017-08-20T12:50:03.659Z,35.55
2017-08-20T12:52:31.167Z,34.74
2017-08-20T12:54:58.676Z,34.36
2017-08-20T12:57:26.187Z,34.76
2017-08-20T12:59:53.681Z,35.06
2017-08-20T13:02:21.146Z,34.73
2017-08-20T13:04:48.947Z,34.07
2017-08-20T13:07:16.426Z,33.44
2017-08-20T13:09:43.916Z,33.53
2017-08-20T13:12:11.374Z,34.25
2017-08-20T13:14:38.879Z,34.30
2017-08-20T13:17:06.347Z,34.96
2017-08-20T13:19:33.877Z,34.52
2017-08-20T13:22:01.355Z,35.33
2017-08-20T13:24:28.862Z,36.29
2017-08-20T13:26:56.325Z,38.18
2017-08-20T13:29:23.832Z,38.94
2017-08-20T13:31:51.416Z,39.76
2017-08-20T13:34:18.897Z,39.12
2017-08-20T13:36:46.402Z,38.66
2017-08-20T13:39:13.904Z,38.46
2017-08-20T13:41:41.393Z,38.68
2017-08-20T13:44:08.892Z,38.34
2017-08-20T13:46:36.382Z,38.40
2017-08-20T13:49:04.874Z,37.35
2017-08-20T13:51:33.228Z,37.46
2017-08-20T13:54:00.697Z,38.03
2017-08-20T13:56:28.310Z,36.97
2017-08-20T13:58:55.778Z,37.92
2017-08-20T14:01:23.232Z,37.82
2017-08-20T14:03:50.717Z,37.16
2017-08-20T14:06:18.178Z,37.47
2017-08-20T14:08:45.656Z,36.72
2017-08-20T14:11:13.129Z,36.39
2017-08-20T14:13:40.618Z,36.14
2017-08-20T14:16:08.114Z,35.50
2017-08-20T14:18:35.635Z,35.11
2017-08-20T14:21:03.808Z,36.52
2017-08-20T14:23:31.314Z,36.79
2017-08-20T14:25:58.832Z,36.94
2017-08-20T14:28:26.309Z,36.17
2017-08-20T14:30:54.624Z,35.22
2017-08-20T14:33:22.097Z,34.98
2017-08-20T14:35:49.602Z,35.87
2017-08-20T14:38:17.057Z,36.00
2017-08-20T14:40:44.559Z,35.30
2017-08-20T14:43:12.047Z,34.36
2017-08-20T14:45:39.547Z,34.27
2017-08-20T14:48:07.006Z,35.02
2017-08-20T14:50:34.487Z,35.68
2017-08-20T14:53:01.962Z,35.86
2017-08-20T14:55:29.453Z,35.39
2017-08-20T14:57:56.959Z,34.18
2017-08-20T15:00:24.453Z,34.62
2017-08-20T15:02:52.507Z,33.97
2017-08-20T15:05:19.975Z,33.65
2017-08-20T15:07:47.487Z,33.73
2017-08-20T15:10:14.965Z,34.66
2017-08-20T15:12:42.427Z,35.18
2017-08-20T15:15:10.311Z,35.03
2017-08-20T15:17:37.777Z,35.67
2017-08-20T15:20:05.882Z,35.81
2017-08-20T15:22:33.362Z,36.72
2017-08-20T15:25:00.859Z,37.07
2017-08-20T15:27:28.319Z,37.41
2017-08-20T15:29:55.858Z,37.95
2017-08-20T15:32:23.331Z,38.30
2017-08-20T15:34:50.814Z,38.74
2017-08-20T15:37:18.291Z,39.67
2017-08-20T15:39:46.577Z,39.49
2017-08-20T15:42:14.210Z,39.69
2017-08-20T15:44:41.680Z,38.74
2017-08-20T15:47:09.176Z,38.90
2017-08-20T15:49:36.662Z,37.48
2017-08-20T15:52:05.087Z,36.18
2017-08-20T15:54:32.581Z,36.15
2017-08-20T15:57:00.082Z,36.32
2017-08-20T15:59:27.566Z,37.01
2017-08-20T16:01:55.063Z,38.59
2017-08-20T16:04:22.822Z,39.15
2017-08-20T16:06:50.276Z,40.04
2017-08-20T16:09:17.747Z,38.88
2017-08-20T16:11:45.331Z,39.31
2017-08-20T16:14:12.876Z,39.26
2017-08-20T16:16:40.347Z,39.28
2017-08-20T16:19:07.857Z,39.54
2017-08-20T16:21:35.347Z,38.69
2017-08-20T16:24:02.846Z,38.27
2017-08-20T16:26:30.320Z,38.25
2017-08-20T16:28:57.781Z,38.74
2017-08-20T16:31:25.270Z,38.89
2017-08-20T16:33:52.729Z,38.83
2017-08-20T16:36:20.225Z,38.81
2017-08-20T16:38:47.744Z,38.77
2017-08-20T16:41:15.233Z,38.29
2017-08-20T16:43:42.688Z,38.29
2017-08-20T16:46:10.183Z,38.25
2017-08-20T16:48:37.701Z,38.10
2017-08-20T16:51:05.214Z,37.39
2017-08-20T16:53:32.696Z,36.29
2017-08-20T16:56:00.182Z,35.78
2017-08-20T16:58:27.726Z,35.81
2017-08-20T17:00:55.713Z,36.56
2017-08-20T17:03:23.220Z,37.39
2017-08-20T17:05:50.698Z,38.16
2017-08-20T17:08:18.187Z,38.56
2017-08-20T17:10:45.716Z,38.81
2017-08-20T17:13:13.198Z,39.13
2017-08-20T17:15:40.695Z,38.85
2017-08-20T17:18:08.166Z,38.56
2017-08-20T17:20:35.650Z,38.40
2017-08-20T17:23:03.131Z,38.57
2017-08-20T17:25:30.614Z,39.04
2017-08-20T17:27:58.092Z,39.70
2017-08-20T17:30:25.573Z,40.04
2017-08-20T17:32:53.065Z,40.33
2017-08-20T17:35:21.382Z,40.75
2017-08-20T17:37:48.843Z,40.75
2017-08-20T17:40:16.324Z,40.86
2017-08-20T17:42:43.785Z,41.24
2017-08-20T17:45:11.271Z,41.47
2017-08-20T17:47:38.774Z,41.65
2017-08-20T17:50:06.266Z,41.70
2017-08-20T17:52:33.781Z,41.96
2017-08-20T17:55:01.251Z,42.60
2017-08-20T17:57:28.955Z,43.38
2017-08-20T17:59:56.419Z,43.66
2017-08-20T18:02:23.872Z,43.95
2017-08-20T18:04:51.381Z,44.34
2017-08-20T18:07:18.890Z,43.94
2017-08-20T18:09:46.359Z,43.84
2017-08-20T18:12:13.844Z,43.97
2017-08-20T18:14:41.363Z,44.14
2017-08-20T18:17:09.929Z,44.60
2017-08-20T18:19:37.383Z,44.65
2017-08-20T18:22:04.869Z,44.63
2017-08-20T18:24:32.470Z,44.83
2017-08-20T18:26:59.947Z,44.66
2017-08-20T18:29:27.446Z,44.93
2017-08-20T18:31:54.928Z,45.28
2017-08-20T18:34:22.413Z,45.11
2017-08-20T18:36:49.888Z,45.83
2017-08-20T18:39:17.407Z,47.16
2017-08-20T18:41:44.883Z,47.85
2017-08-20T18:44:12.396Z,48.71
2017-08-20T18:46:39.873Z,49.71
2017-08-20T18:49:07.367Z,49.71
2017-08-20T18:51:34.831Z,49.89
2017-08-20T18:54:02.343Z,49.96
2017-08-20T18:56:29.820Z,49.98
2017-08-20T18:58:57.447Z,50.19
2017-08-20T19:01:24.924Z,50.11
2017-08-20T19:03:52.412Z,50.38
2017-08-20T19:06:19.905Z,50.77
2017-08-20T19:08:47.386Z,50.91
2017-08-20T19:11:14.884Z,51.41
2017-08-20T19:13:42.398Z,51.47
2017-08-20T19:16:09.876Z,51.56
2017-08-20T19:18:37.344Z,51.95
2017-08-20T19:21:04.863Z,52.25
2017-08-20T19:23:32.341Z,52.46
2017-08-20T19:25:59.826Z,53.14
2017-08-20T19:28:27.347Z,53.68
2017-08-20T19:30:55.185Z,54.12
2017-08-20T19:33:22.698Z,54.68
2017-08-20T19:35:50.182Z,54.87
2017-08-20T19:38:17.694Z,54.88
2017-08-20T19:40:45.186Z,54.99
2017-08-20T19:43:12.711Z,55.73
2017-08-20T19:45:41.089Z,55.92
2017-08-20T19:48:08.584Z,56.33
2017-08-20T19:50:36.065Z,56.16
2017-08-20T19:53:03.630Z,56.01
2017-08-20T19:55:31.154Z,56.22
2017-08-20T19:57:59.143Z,56.44
2017-08-20T20:00:26.603Z,56.59
2017-08-20T20:02:54.059Z,56.84
2017-08-20T20:05:21.551Z,57.17
2017-08-20T20:07:48.998Z,57.22
2017-08-20T20:10:16.486Z,57.42
2017-08-20T20:12:44.027Z,57.17
2017-08-20T20:15:11.499Z,57.35
2017-08-20T20:17:38.979Z,57.55
2017-08-20T20:20:06.471Z,57.50
2017-08-20T20:22:33.913Z,57.22
2017-08-20T20:25:01.377Z,57.35
2017-08-20T20:27:28.857Z,57.67
2017-08-20T20:29:56.321Z,57.69
2017-08-20T20:32:23.819Z,57.76
2017-08-20T20:34:51.276Z,57.96
2017-08-20T20:37:18.804Z,58.50
2017-08-20T20:39:46.288Z,58.71
2017-08-20T20:42:13.772Z,58.87
2017-08-20T20:44:41.217Z,58.98
2017-08-20T20:47:08.705Z,59.31
2017-08-20T20:49:36.198Z,59.39
2017-08-20T20:52:04.052Z,59.95
2017-08-20T20:54:31.546Z,60.30
2017-08-20T20:56:59.022Z,60.33
2017-08-20T20:59:26.536Z,60.97
2017-08-20T21:01:54.004Z,60.96
2017-08-20T21:04:22.212Z,60.85
2017-08-20T21:06:50.019Z,61.35
2017-08-20T21:09:17.472Z,61.30
2017-08-20T21:11:44.971Z,61.53
2017-08-20T21:14:12.481Z,61.71
2017-08-20T21:16:39.965Z,61.79
2017-08-20T21:19:07.433Z,61.76
2017-08-20T21:21:34.940Z,61.71
2017-08-20T21:24:02.409Z,61.90
2017-08-20T21:26:29.901Z,61.92
2017-08-20T21:28:57.378Z,65.26
2017-08-20T21:31:24.856Z,62.53
2017-08-20T21:33:52.351Z,57.75
2017-08-20T21:36:19.828Z,56.22
2017-08-20T21:38:47.326Z,54.65
2017-08-20T21:41:14.783Z,53.97
2017-08-20T21:43:42.289Z,53.42
2017-08-20T21:46:09.773Z,52.87
2017-08-20T21:48:37.245Z,52.56
2017-08-20T21:51:04.713Z,52.57
2017-08-20T21:53:33.182Z,52.42
2017-08-20T21:56:02.458Z,51.97
2017-08-20T21:58:29.947Z,52.25
2017-08-20T22:01:01.306Z,51.99
2017-08-20T22:03:29.974Z,51.82
2017-08-20T22:05:59.186Z,51.66
2017-08-20T22:08:28.084Z,51.56
2017-08-20T22:10:55.638Z,51.68
2017-08-20T22:13:23.122Z,51.27
2017-08-20T22:15:50.612Z,53.76
2017-08-20T22:18:18.095Z,56.49
2017-08-20T22:20:45.613Z,58.55
2017-08-20T22:23:13.106Z,59.39
2017-08-20T22:25:40.549Z,60.04
2017-08-20T22:28:08.084Z,61.33
2017-08-20T22:30:35.566Z,62.13
2017-08-20T22:33:03.065Z,62.20
2017-08-20T22:35:30.555Z,62.63
2017-08-20T22:37:58.043Z,62.78
2017-08-20T22:40:25.525Z,62.98
2017-08-20T22:42:53.043Z,63.59
2017-08-20T22:45:20.531Z,63.75
2017-08-20T22:47:47.985Z,63.75
2017-08-20T22:50:15.468Z,63.14
2017-08-20T22:52:42.914Z,63.98
2017-08-20T22:55:10.413Z,64.59
2017-08-20T22:57:37.910Z,64.90
2017-08-20T23:00:05.411Z,65.02
2017-08-20T23:02:32.852Z,65.12
2017-08-20T23:05:00.364Z,65.74
2017-08-20T23:07:27.830Z,66.29
2017-08-20T23:09:55.307Z,65.76
2017-08-20T23:12:22.753Z,65.67
2017-08-20T23:14:50.242Z,65.77
2017-08-20T23:17:17.708Z,66.03
2017-08-20T23:19:45.212Z,66.24
2017-08-20T23:22:12.704Z,66.03
2017-08-20T23:24:40.201Z,66.22
2017-08-20T23:27:07.697Z,66.71
2017-08-20T23:29:35.149Z,67.28
2017-08-20T23:32:02.618Z,67.58
2017-08-20T23:34:30.088Z,67.22
2017-08-20T23:36:57.590Z,67.07
2017-08-20T23:39:25.074Z,67.42
2017-08-20T23:41:52.538Z,67.53
2017-08-20T23:44:20.050Z,67.40
2017-08-20T23:46:47.503Z,67.40
2017-08-20T23:49:14.988Z,67.23
2017-08-20T23:51:42.443Z,67.21
2017-08-20T23:54:09.918Z,66.96
2017-08-20T23:56:37.386Z,66.89
2017-08-20T23:59:04.849Z,67.03
